Time;durP1;ratioP1;P1;durP2;ratioP2;P2;SDS_P1;SDS_P2;PMS_P1;PMS_P2;Temp;Humidity;BMP_temperature;BMP_pressure;BME280_temperature;BME280_humidity;BME280_pressure;Samples;Min_cycle;Max_cycle;Signal;HPM_P1;HPM_P2
2021/06/28 00:01:12;;;;;;;8.67;6.63;;;23.20;99.90;;;;;;5095899;28;20446;-66
2021/06/28 00:03:38;;;;;;;7.93;7.13;;;23.20;99.90;;;;;;5096701;28;20416;-67
2021/06/28 00:06:06;;;;;;;9.30;6.67;;;23.20;99.90;;;;;;5095873;28;20451;-67
2021/06/28 00:08:32;;;;;;;10.43;6.40;;;23.00;99.90;;;;;;5095896;28;20467;-67
2021/06/28 00:10:58;;;;;;;8.50;6.13;;;23.00;99.90;;;;;;5094625;28;20425;-68
2021/06/28 00:13:23;;;;;;;7.10;6.10;;;22.90;99.90;;;;;;5096041;28;20570;-65
2021/06/28 00:15:49;;;;;;;9.37;5.90;;;22.80;99.90;;;;;;5095697;28;20421;-67
2021/06/28 00:18:16;;;;;;;6.90;6.20;;;22.70;99.90;;;;;;5096166;28;20181;-65
2021/06/28 00:20:42;;;;;;;7.43;6.13;;;22.70;99.90;;;;;;5095627;28;20494;-67
2021/06/28 00:23:08;;;;;;;9.70;7.23;;;22.80;99.90;;;;;;5095510;28;20519;-66
2021/06/28 00:25:35;;;;;;;7.60;6.90;;;22.90;99.90;;;;;;5111118;28;20530;-66
2021/06/28 00:28:01;;;;;;;7.70;7.00;;;22.70;99.90;;;;;;5095770;28;20945;-65
2021/06/28 00:30:29;;;;;;;8.13;6.80;;;22.70;99.90;;;;;;5095471;28;20558;-67
2021/06/28 00:32:55;;;;;;;6.97;6.33;;;22.70;99.90;;;;;;5095528;28;20571;-65
2021/06/28 00:35:22;;;;;;;7.30;6.70;;;22.80;99.90;;;;;;5095248;28;20905;-66
2021/06/28 00:37:49;;;;;;;9.27;6.20;;;22.70;99.90;;;;;;5095497;28;20772;-68
2021/06/28 00:40:19;;;;;;;8.30;6.40;;;22.60;99.90;;;;;;5095449;28;20496;-66
2021/06/28 00:42:45;;;;;;;8.33;6.60;;;22.60;99.90;;;;;;5095409;28;20784;-65
2021/06/28 00:45:27;;;;;;;8.50;7.63;;;22.60;99.90;;;;;;5095177;28;20978;-65
2021/06/28 00:47:56;;;;;;;10.13;7.23;;;22.60;99.90;;;;;;5095401;28;20429;-65
2021/06/28 00:50:24;;;;;;;7.90;7.10;;;22.50;99.90;;;;;;5093673;28;20477;-65
2021/06/28 00:52:58;;;;;;;10.30;6.80;;;22.50;99.90;;;;;;5094932;28;20560;-65
2021/06/28 00:55:24;;;;;;;6.90;6.30;;;22.40;99.90;;;;;;5095157;28;20930;-66
2021/06/28 00:57:50;;;;;;;7.90;7.10;;;22.30;99.90;;;;;;5095228;28;20413;-67
2021/06/28 01:00:17;;;;;;;8.63;7.40;;;22.20;99.90;;;;;;5094865;28;20441;-67
2021/06/28 01:02:43;;;;;;;8.97;7.43;;;22.10;99.90;;;;;;5094763;28;20164;-65
2021/06/28 01:05:12;;;;;;;13.60;6.87;;;22.00;99.90;;;;;;5094681;28;20433;-65
2021/06/28 01:07:38;;;;;;;8.57;7.10;;;22.00;99.90;;;;;;5095038;28;20228;-67
2021/06/28 01:10:06;;;;;;;9.83;7.77;;;22.00;99.90;;;;;;5094560;28;20429;-66
2021/06/28 01:12:32;;;;;;;10.03;7.27;;;22.10;99.90;;;;;;5094589;28;20632;-68
2021/06/28 01:14:59;;;;;;;8.60;7.10;;;22.20;99.90;;;;;;5110268;28;20413;-67
2021/06/28 01:17:25;;;;;;;7.93;7.13;;;22.20;99.90;;;;;;5093325;28;20929;-66
2021/06/28 01:20:01;;;;;;;7.30;6.60;;;22.10;99.90;;;;;;5094411;28;20419;-67
2021/06/28 01:22:32;;;;;;;7.13;6.43;;;22.20;99.90;;;;;;5094277;28;20496;-66
2021/06/28 01:24:59;;;;;;;8.70;7.03;;;22.20;99.90;;;;;;5094315;28;20460;-66
2021/06/28 01:27:27;;;;;;;8.70;7.57;;;22.20;99.90;;;;;;5093248;28;20413;-67
2021/06/28 01:29:53;;;;;;;8.47;6.57;;;22.10;99.90;;;;;;5109899;28;20462;-65
2021/06/28 01:32:19;;;;;;;8.43;6.47;;;21.90;99.90;;;;;;5092872;28;20476;-66
2021/06/28 01:34:45;;;;;;;7.87;6.80;;;21.90;99.90;;;;;;5094215;28;20459;-68
2021/06/28 01:37:24;;;;;;;7.97;7.17;;;22.10;99.90;;;;;;5094142;28;20409;-65
2021/06/28 01:39:53;;;;;;;8.23;6.63;;;22.10;99.90;;;;;;5094086;28;20175;-67
2021/06/28 01:42:19;;;;;;;7.83;6.60;;;22.00;99.90;;;;;;5092953;28;20412;-65
2021/06/28 01:44:45;;;;;;;14.53;7.73;;;22.00;99.90;;;;;;5109815;28;20538;-65
2021/06/28 01:47:11;;;;;;;7.40;6.70;;;21.90;99.90;;;;;;5092765;28;20877;-67
2021/06/28 01:49:36;;;;;;;7.63;6.93;;;22.00;99.90;;;;;;5094009;28;20237;-67
2021/06/28 01:52:03;;;;;;;8.67;7.87;;;22.10;99.90;;;;;;5093752;28;20211;-67
2021/06/28 01:54:29;;;;;;;8.73;7.43;;;22.10;99.90;;;;;;5094110;28;20585;-66
2021/06/28 01:56:56;;;;;;;7.57;6.87;;;22.10;99.90;;;;;;5109463;28;20432;-67
2021/06/28 01:59:29;;;;;;;8.37;6.73;;;22.10;99.90;;;;;;5092692;28;20409;-67
2021/06/28 02:01:55;;;;;;;8.10;7.30;;;22.00;99.90;;;;;;5093808;28;20425;-66
2021/06/28 02:04:21;;;;;;;11.17;7.40;;;21.90;99.90;;;;;;5093915;28;20898;-67
2021/06/28 02:06:48;;;;;;;8.00;7.20;;;21.90;99.90;;;;;;5109434;28;20447;-66
2021/06/28 02:09:14;;;;;;;7.27;6.67;;;21.80;99.90;;;;;;5093826;28;20187;-66
2021/06/28 02:11:39;;;;;;;8.80;6.90;;;21.90;99.90;;;;;;5093720;28;20452;-66
2021/06/28 02:14:05;;;;;;;9.30;7.90;;;21.90;99.90;;;;;;5093794;28;20203;-67
2021/06/28 02:16:31;;;;;;;11.50;7.77;;;22.10;99.90;;;;;;5093702;28;20304;-67
2021/06/28 02:18:57;;;;;;;7.53;6.83;;;22.00;99.90;;;;;;5094226;28;20168;-65
2021/06/28 02:21:22;;;;;;;7.60;6.40;;;22.00;99.90;;;;;;5093689;28;20424;-65
2021/06/28 02:23:48;;;;;;;9.23;7.70;;;22.00;99.90;;;;;;5092669;28;20179;-67
2021/06/28 02:26:14;;;;;;;10.73;7.20;;;22.00;99.90;;;;;;5093524;28;20255;-66
2021/06/28 02:28:42;;;;;;;9.23;6.67;;;22.00;99.90;;;;;;5094172;28;20255;-68
2021/06/28 02:31:11;;;;;;;7.07;6.37;;;21.90;99.90;;;;;;5093636;28;20481;-65
2021/06/28 02:33:39;;;;;;;8.47;6.83;;;21.90;99.90;;;;;;5109565;28;20468;-65
2021/06/28 02:36:06;;;;;;;7.90;6.47;;;21.80;99.90;;;;;;5097317;28;20571;-67
2021/06/28 02:38:31;;;;;;;9.20;6.60;;;21.80;99.90;;;;;;5096501;28;20792;-68
2021/06/28 02:40:57;;;;;;;10.93;7.13;;;21.80;99.90;;;;;;5097422;28;20433;-65
2021/06/28 02:43:23;;;;;;;7.33;6.63;;;21.80;99.90;;;;;;5113454;28;20663;-66
2021/06/28 02:45:49;;;;;;;8.90;6.47;;;21.70;99.90;;;;;;5096154;28;20512;-65
2021/06/28 02:48:15;;;;;;;7.33;6.60;;;21.70;99.90;;;;;;5097788;28;20176;-65
2021/06/28 02:50:41;;;;;;;8.33;7.00;;;21.70;99.90;;;;;;5097353;28;20432;-67
2021/06/28 02:53:08;;;;;;;7.87;7.10;;;21.60;99.90;;;;;;5097450;28;20488;-65
2021/06/28 02:55:34;;;;;;;10.90;7.13;;;21.60;99.90;;;;;;5097296;28;20241;-66
2021/06/28 02:57:59;;;;;;;8.90;7.57;;;21.70;99.90;;;;;;5097528;28;20897;-65
2021/06/28 03:00:25;;;;;;;11.33;8.27;;;22.10;99.90;;;;;;5112899;28;20196;-68
2021/06/28 03:02:52;;;;;;;13.07;8.13;;;22.70;99.90;;;;;;5097414;28;20272;-66
2021/06/28 03:05:18;;;;;;;17.73;8.53;;;23.00;99.90;;;;;;5097021;28;20432;-68
2021/06/28 03:07:44;;;;;;;16.43;8.40;;;23.40;99.90;;;;;;5097230;28;20421;-66
2021/06/28 03:10:12;;;;;;;11.63;7.77;;;23.80;99.90;;;;;;5096975;28;20519;-66
2021/06/28 03:12:39;;;;;;;16.10;8.97;;;24.00;99.90;;;;;;5112811;28;20685;-66
2021/06/28 03:15:07;;;;;;;26.57;13.10;;;24.30;99.90;;;;;;5095532;28;20425;-68
2021/06/28 03:17:33;;;;;;;34.47;12.10;;;24.40;99.90;;;;;;5096953;28;20463;-67
2021/06/28 03:19:58;;;;;;;24.53;14.20;;;24.60;99.90;;;;;;5096828;28;20510;-67
2021/06/28 03:22:24;;;;;;;26.77;11.30;;;23.90;99.90;;;;;;5095567;28;20180;-67
2021/06/28 03:24:50;;;;;;;16.83;9.70;;;23.70;99.90;;;;;;5096529;28;20289;-66
2021/06/28 03:27:15;;;;;;;19.77;10.50;;;23.90;99.90;;;;;;5096814;28;20184;-65
2021/06/28 03:29:41;;;;;;;12.20;8.90;;;23.60;99.90;;;;;;5096677;28;20191;-67
2021/06/28 03:32:07;;;;;;;8.83;7.17;;;23.70;99.90;;;;;;5096522;28;20355;-65
2021/06/28 03:34:32;;;;;;;9.87;8.17;;;23.60;99.90;;;;;;5096560;28;20222;-66
2021/06/28 03:36:58;;;;;;;12.23;8.50;;;23.50;99.90;;;;;;5096375;28;20413;-66
2021/06/28 03:39:23;;;;;;;10.33;7.60;;;23.30;99.90;;;;;;5096434;28;20204;-66
2021/06/28 03:41:49;;;;;;;10.77;8.00;;;23.50;99.90;;;;;;5096202;28;20657;-67
2021/06/28 03:44:14;;;;;;;10.40;8.03;;;23.60;99.90;;;;;;5096433;28;20537;-67
2021/06/28 03:46:40;;;;;;;7.57;6.80;;;23.40;99.90;;;;;;5096078;28;20207;-67
2021/06/28 03:49:06;;;;;;;12.00;7.93;;;23.30;99.90;;;;;;5094825;28;20528;-66
2021/06/28 03:51:31;;;;;;;11.13;7.60;;;23.20;99.90;;;;;;5096078;28;20220;-70
2021/06/28 03:53:57;;;;;;;7.67;6.97;;;23.30;99.90;;;;;;5096579;28;20180;-68
2021/06/28 03:56:22;;;;;;;10.33;6.90;;;23.30;99.90;;;;;;5093210;28;20207;-68
2021/06/28 03:58:48;;;;;;;11.93;7.00;;;23.50;99.90;;;;;;5094602;28;20177;-66
2021/06/28 04:01:14;;;;;;;16.40;8.03;;;23.50;99.90;;;;;;5111458;28;20271;-66
2021/06/28 04:03:40;;;;;;;8.30;7.50;;;23.40;99.90;;;;;;5096487;28;20179;-65
2021/06/28 04:06:07;;;;;;;8.10;7.30;;;23.40;99.90;;;;;;5094561;28;20224;-66
2021/06/28 04:08:35;;;;;;;9.00;6.90;;;23.40;99.90;;;;;;5096432;28;20173;-66
2021/06/28 04:11:02;;;;;;;11.63;8.30;;;23.40;99.90;;;;;;5095810;28;20848;-66
2021/06/28 04:13:28;;;;;;;11.27;7.67;;;23.40;99.90;;;;;;5095488;28;20475;-67
2021/06/28 04:15:54;;;;;;;9.03;7.97;;;23.50;99.90;;;;;;5095651;28;20465;-67
2021/06/28 05:52:04;;;;;;;64.80;11.00;;;24.70;99.90;;;;;;5146827;27;20648;-69
2021/06/28 05:54:29;;;;;;;8.60;7.70;;;25.30;99.90;;;;;;5141281;27;20821;-66
2021/06/28 05:56:55;;;;;;;10.30;7.33;;;25.30;99.90;;;;;;5149019;27;20286;-65
2021/06/28 05:59:20;;;;;;;9.47;6.97;;;25.30;99.90;;;;;;5146780;27;20236;-66
2021/06/28 06:01:46;;;;;;;8.70;7.80;;;25.40;99.90;;;;;;5140108;27;20418;-65
2021/06/28 06:04:14;;;;;;;8.80;7.83;;;25.50;99.90;;;;;;5152335;27;20166;-67
2021/06/28 06:06:44;;;;;;;7.27;6.57;;;25.60;99.90;;;;;;5152022;27;20197;-71
2021/06/28 06:09:10;;;;;;;8.03;6.87;;;25.70;99.90;;;;;;5131880;27;20441;-71
2021/06/28 06:11:37;;;;;;;7.73;6.50;;;25.80;99.90;;;;;;5125458;27;20900;-71
2021/06/28 06:14:03;;;;;;;8.53;7.13;;;25.90;99.90;;;;;;5142256;27;20458;-71
2021/06/28 06:16:29;;;;;;;7.63;6.93;;;26.00;99.90;;;;;;5132258;27;20484;-71
2021/06/28 06:18:55;;;;;;;9.30;8.43;;;26.10;99.90;;;;;;5149510;27;20414;-71
2021/06/28 06:21:24;;;;;;;8.10;6.33;;;26.10;99.90;;;;;;5131770;27;20524;-65
2021/06/28 06:23:51;;;;;;;8.00;7.20;;;26.20;99.90;;;;;;5145085;27;20629;-71
2021/06/28 06:26:17;;;;;;;7.43;6.53;;;26.30;99.90;;;;;;5150916;27;20486;-67
2021/06/28 06:28:42;;;;;;;7.73;7.03;;;26.40;99.90;;;;;;5150493;27;20493;-68
2021/06/28 06:31:08;;;;;;;7.73;7.03;;;26.50;99.90;;;;;;5149667;27;20577;-68
2021/06/28 06:33:34;;;;;;;7.40;6.70;;;26.60;99.90;;;;;;5148405;27;20698;-67
2021/06/28 06:36:00;;;;;;;7.07;5.83;;;26.60;99.90;;;;;;5129884;27;20556;-71
2021/06/28 06:38:25;;;;;;;7.40;6.70;;;26.70;99.90;;;;;;5130181;27;20183;-68
2021/06/28 06:40:52;;;;;;;6.67;6.07;;;26.80;99.90;;;;;;5146598;27;20493;-71
2021/06/28 06:43:18;;;;;;;6.93;6.33;;;26.90;99.90;;;;;;5130454;28;20250;-72
2021/06/28 06:45:44;;;;;;;7.50;6.50;;;27.00;99.90;;;;;;5142448;27;20462;-71
2021/06/28 06:48:11;;;;;;;7.33;6.70;;;27.10;99.90;;;;;;5149071;27;20430;-68
2021/06/28 06:50:37;;;;;;;6.80;6.20;;;27.20;99.90;;;;;;5129532;27;20492;-72
2021/06/28 06:53:02;;;;;;;9.03;6.67;;;27.20;99.90;;;;;;5128935;27;20418;-68
2021/06/28 06:55:28;;;;;;;6.53;5.93;;;27.30;99.90;;;;;;5145410;27;20668;-72
2021/06/28 06:57:54;;;;;;;7.00;6.40;;;27.40;99.90;;;;;;5125371;27;20186;-72
2021/06/28 07:00:21;;;;;;;6.37;5.77;;;27.50;99.90;;;;;;5141409;27;20544;-73
2021/06/28 07:02:49;;;;;;;6.90;6.20;;;27.60;99.90;;;;;;5135233;27;20179;-72
2021/06/28 07:05:16;;;;;;;9.87;6.43;;;27.60;99.90;;;;;;5132460;27;20446;-68
2021/06/28 07:07:43;;;;;;;7.53;6.83;;;27.70;99.90;;;;;;5131946;27;20826;-73
2021/06/28 07:10:13;;;;;;;6.80;6.20;;;27.80;99.90;;;;;;5133979;27;20495;-68
2021/06/28 07:12:40;;;;;;;6.67;6.07;;;27.90;99.90;;;;;;5136531;27;20415;-72
2021/06/28 07:15:07;;;;;;;8.50;6.60;;;27.90;99.90;;;;;;5114095;27;20467;-68
2021/06/28 07:17:33;;;;;;;7.87;7.07;;;28.00;99.90;;;;;;5132380;27;20497;-72
2021/06/28 07:19:58;;;;;;;7.30;6.60;;;28.10;99.90;;;;;;5113620;27;20443;-68
2021/06/28 07:22:24;;;;;;;6.37;5.77;;;28.10;99.90;;;;;;5132583;27;20176;-68
2021/06/28 07:24:50;;;;;;;6.87;6.20;;;28.30;99.90;;;;;;5131941;27;20637;-67
2021/06/28 07:27:17;;;;;;;6.53;5.93;;;28.30;99.90;;;;;;5132232;27;20263;-73
2021/06/28 07:29:43;;;;;;;6.40;5.80;;;28.40;99.90;;;;;;5131800;27;20464;-69
2021/06/28 07:32:08;;;;;;;6.33;5.73;;;28.50;99.90;;;;;;5131397;27;20448;-72
2021/06/28 07:34:34;;;;;;;6.70;6.10;;;28.50;99.90;;;;;;5132260;27;20419;-73
2021/06/28 07:37:00;;;;;;;6.97;6.23;;;28.60;99.90;;;;;;5129609;27;20680;-70
2021/06/28 07:39:26;;;;;;;6.90;6.20;;;28.60;99.90;;;;;;5133979;27;20412;-68
2021/06/28 07:41:52;;;;;;;8.00;6.00;;;28.80;99.90;;;;;;5131860;27;20458;-68
2021/06/28 07:44:22;;;;;;;6.10;5.60;;;28.80;99.90;;;;;;5110104;27;20467;-69
2021/06/28 07:46:48;;;;;;;5.93;5.23;;;28.90;99.90;;;;;;5134784;27;20203;-68
2021/06/28 07:49:14;;;;;;;6.50;6.00;;;28.90;99.90;;;;;;5114236;27;20468;-68
2021/06/28 07:51:40;;;;;;;5.77;5.27;;;29.10;99.90;;;;;;5123606;27;20483;-68
2021/06/28 07:54:07;;;;;;;6.20;5.70;;;29.10;99.90;;;;;;5122099;27;20176;-68
2021/06/28 07:56:34;;;;;;;6.37;5.87;;;29.20;99.90;;;;;;5128138;27;20254;-72
2021/06/28 07:59:00;;;;;;;5.37;4.80;;;29.30;99.90;;;;;;5113894;27;20413;-68
2021/06/28 08:01:25;;;;;;;5.40;5.00;;;29.30;99.90;;;;;;5101222;27;20462;-68
2021/06/28 08:03:51;;;;;;;4.50;4.20;;;29.30;99.90;;;;;;5132537;27;20785;-72
2021/06/28 08:06:19;;;;;;;5.10;4.60;;;29.40;99.90;;;;;;5110809;27;20206;-73
2021/06/28 08:08:48;;;;;;;5.17;4.77;;;29.50;99.90;;;;;;5132036;27;20190;-73
2021/06/28 08:11:14;;;;;;;5.40;5.00;;;29.50;99.90;;;;;;5134235;27;20494;-73
2021/06/28 08:13:46;;;;;;;6.07;5.47;;;29.50;99.90;;;;;;5134309;27;20418;-73
2021/06/28 08:16:15;;;;;;;5.60;4.80;;;29.60;99.90;;;;;;5132587;27;20812;-73
2021/06/28 08:18:43;;;;;;;5.60;5.20;;;29.70;99.90;;;;;;5115514;27;20945;-68
2021/06/28 08:21:10;;;;;;;5.03;4.43;;;29.80;99.90;;;;;;5109816;27;20490;-72
2021/06/28 08:23:36;;;;;;;6.00;5.50;;;29.90;99.90;;;;;;5134273;27;20418;-68
2021/06/28 08:26:02;;;;;;;5.60;5.20;;;30.00;99.90;;;;;;5132924;27;20462;-73
2021/06/28 08:28:28;;;;;;;5.67;5.17;;;30.10;99.90;;;;;;5126458;27;20544;-69
2021/06/28 08:30:54;;;;;;;5.33;4.83;;;30.20;99.90;;;;;;5135228;27;20484;-73
2021/06/28 08:33:20;;;;;;;13.83;12.30;;;30.20;99.90;;;;;;5132580;27;20181;-73
2021/06/28 08:35:46;;;;;;;5.63;5.23;;;30.30;99.90;;;;;;5133561;27;20209;-73
2021/06/28 08:38:12;;;;;;;5.27;4.87;;;30.30;99.80;;;;;;5128635;27;20438;-69
2021/06/28 08:40:39;;;;;;;7.20;6.50;;;30.30;99.90;;;;;;5111327;27;20238;-72
2021/06/28 08:43:06;;;;;;;5.77;5.37;;;30.40;99.90;;;;;;5129491;27;20421;-68
2021/06/28 08:45:38;;;;;;;5.07;4.57;;;30.50;99.90;;;;;;5126608;27;20518;-68
2021/06/28 08:48:05;;;;;;;4.60;4.20;;;30.50;99.90;;;;;;5099765;27;20424;-68
2021/06/28 08:50:32;;;;;;;5.67;5.07;;;30.60;99.90;;;;;;5108781;27;20495;-73
2021/06/28 08:52:58;;;;;;;4.03;3.73;;;30.60;99.90;;;;;;5109744;27;20534;-68
2021/06/28 08:55:24;;;;;;;4.63;4.23;;;30.70;98.30;;;;;;5128500;27;20449;-69
2021/06/28 08:57:50;;;;;;;4.17;3.77;;;30.80;98.40;;;;;;5129257;27;20497;-74
2021/06/28 09:00:16;;;;;;;4.20;3.80;;;30.80;97.70;;;;;;5125951;27;20545;-68
2021/06/28 09:03:03;;;;;;;4.20;3.90;;;30.90;98.00;;;;;;5118485;27;20680;-73
2021/06/28 09:05:49;;;;;;;3.83;3.53;;;31.00;97.40;;;;;;5126460;27;20518;-73
2021/06/28 09:08:16;;;;;;;4.93;4.53;;;31.10;96.50;;;;;;5131141;27;20821;-68
2021/06/28 09:10:44;;;;;;;4.57;4.27;;;31.20;96.60;;;;;;5108721;27;20484;-73
2021/06/28 09:13:10;;;;;;;4.63;4.33;;;31.30;96.00;;;;;;5132701;27;20447;-68
2021/06/28 09:15:50;;;;;;;4.40;4.10;;;31.30;96.50;;;;;;5126132;27;20524;-73
2021/06/28 09:18:20;;;;;;;6.03;5.00;;;31.40;96.60;;;;;;5112615;27;20457;-68
2021/06/28 09:20:47;;;;;;;4.83;4.43;;;31.40;96.60;;;;;;5127883;27;20455;-71
2021/06/28 09:23:20;;;;;;;4.23;3.83;;;31.50;96.90;;;;;;5127662;27;20419;-73
2021/06/28 09:25:46;;;;;;;4.93;4.63;;;31.60;95.60;;;;;;5108332;27;20507;-73
2021/06/28 09:28:12;;;;;;;4.40;4.10;;;31.60;95.00;;;;;;5129494;27;20419;-73
2021/06/28 09:31:00;;;;;;;4.10;3.50;;;31.60;95.20;;;;;;5126601;27;20497;-72
2021/06/28 09:33:25;;;;;;;3.63;3.33;;;31.60;94.00;;;;;;5126071;27;20929;-68
2021/06/28 09:35:50;;;;;;;4.07;3.77;;;31.50;94.10;;;;;;5129238;27;20546;-68
2021/06/28 09:38:38;;;;;;;4.50;4.20;;;31.50;93.90;;;;;;5105585;27;20175;-73
2021/06/28 09:41:30;;;;;;;4.00;3.63;;;31.50;93.90;;;;;;5105319;28;20229;-68
2021/06/28 09:44:05;;;;;;;4.70;4.30;;;31.50;94.00;;;;;;5113953;27;20472;-68
2021/06/28 09:46:31;;;;;;;4.40;4.10;;;31.50;93.90;;;;;;5129114;27;20450;-73
2021/06/28 09:48:57;;;;;;;4.10;3.80;;;31.60;94.70;;;;;;5109907;28;20448;-73
2021/06/28 09:51:25;;;;;;;4.20;3.80;;;31.60;95.10;;;;;;5123774;27;20483;-68
2021/06/28 09:54:16;;;;;;;4.20;3.90;;;31.70;95.40;;;;;;5128305;28;20419;-73
2021/06/28 09:56:47;;;;;;;4.20;3.90;;;31.70;94.90;;;;;;5124180;27;20462;-73
2021/06/28 09:59:24;;;;;;;4.30;4.00;;;31.90;94.00;;;;;;5126640;28;20444;-73
2021/06/28 10:02:08;;;;;;;5.00;4.60;;;32.00;94.40;;;;;;5110357;28;20460;-72
2021/06/28 10:04:42;;;;;;;5.10;4.70;;;32.00;93.40;;;;;;5109521;28;20624;-74
2021/06/28 10:07:22;;;;;;;4.27;3.90;;;32.00;93.70;;;;;;5105989;28;20458;-73
2021/06/28 10:10:07;;;;;;;4.10;3.77;;;32.10;93.30;;;;;;5124450;27;20768;-73
2021/06/28 10:12:32;;;;;;;4.93;4.00;;;32.10;93.00;;;;;;5112960;27;20422;-74
2021/06/28 10:14:58;;;;;;;4.30;4.00;;;32.10;93.10;;;;;;5128639;27;20976;-68
2021/06/28 10:17:25;;;;;;;4.80;4.40;;;32.20;93.10;;;;;;5131434;27;20262;-71
2021/06/28 10:19:51;;;;;;;4.73;4.10;;;32.20;92.60;;;;;;5128950;27;20175;-68
2021/06/28 10:22:17;;;;;;;4.30;3.90;;;32.20;92.50;;;;;;5108370;28;20419;-69
2021/06/28 10:24:43;;;;;;;5.77;3.90;;;32.20;93.50;;;;;;5111841;27;20445;-68
2021/06/28 10:27:10;;;;;;;4.50;4.20;;;32.20;92.80;;;;;;5150058;27;20435;-73
2021/06/28 10:29:36;;;;;;;4.27;3.90;;;32.30;92.80;;;;;;5144015;27;20515;-68
2021/06/28 10:32:04;;;;;;;4.23;3.93;;;32.30;92.00;;;;;;5118869;28;20489;-73
2021/06/28 10:34:31;;;;;;;3.60;3.30;;;32.30;91.80;;;;;;5128503;28;20419;-73
2021/06/28 10:36:58;;;;;;;3.90;3.70;;;32.30;91.30;;;;;;5111808;27;20968;-69
2021/06/28 10:39:30;;;;;;;3.77;3.57;;;32.30;91.70;;;;;;5134339;27;20426;-73
2021/06/28 10:41:58;;;;;;;4.00;3.70;;;32.30;91.70;;;;;;5128197;27;20876;-73
2021/06/28 10:44:24;;;;;;;4.43;4.10;;;32.40;91.00;;;;;;5132571;27;20541;-69
2021/06/28 10:46:53;;;;;;;7.13;3.87;;;32.40;90.90;;;;;;5132791;27;21009;-71
2021/06/28 10:49:44;;;;;;;4.40;4.00;;;32.40;91.10;;;;;;5111632;27;20431;-73
2021/06/28 10:52:10;;;;;;;4.43;4.10;;;32.50;91.30;;;;;;5134356;27;20458;-73
2021/06/28 10:54:37;;;;;;;4.30;3.90;;;32.50;90.60;;;;;;5133385;27;20499;-73
2021/06/28 10:57:04;;;;;;;4.17;3.87;;;32.50;90.80;;;;;;5128374;27;20479;-73
2021/06/28 10:59:40;;;;;;;4.40;4.10;;;32.50;90.20;;;;;;5125018;27;20422;-73
2021/06/28 11:02:09;;;;;;;4.27;3.87;;;32.50;90.00;;;;;;5115370;27;20982;-68
2021/06/28 11:04:40;;;;;;;5.53;3.70;;;32.50;90.00;;;;;;5133785;27;20923;-73
2021/06/28 11:07:09;;;;;;;4.30;3.97;;;32.50;90.00;;;;;;5133728;27;20442;-68
2021/06/28 11:09:43;;;;;;;5.10;4.70;;;32.50;89.80;;;;;;5134673;27;20501;-73
2021/06/28 11:12:22;;;;;;;4.67;3.57;;;32.50;88.80;;;;;;5116411;27;20491;-73
2021/06/28 11:14:53;;;;;;;4.27;3.90;;;32.50;90.30;;;;;;5133453;27;20945;-68
2021/06/28 11:17:22;;;;;;;4.60;3.90;;;32.50;90.10;;;;;;5134039;27;22230;-73
2021/06/28 11:19:58;;;;;;;4.60;4.20;;;32.60;90.00;;;;;;5116696;27;20430;-68
2021/06/28 11:22:33;;;;;;;4.40;4.10;;;32.60;89.40;;;;;;5113718;27;20487;-68
2021/06/28 11:25:08;;;;;;;4.72;4.32;;;32.60;89.40;;;;;;5115485;27;20760;-69
2021/06/28 11:27:40;;;;;;;4.38;3.97;;;32.60;89.50;;;;;;5114034;27;20399;-68
2021/06/28 11:30:19;;;;;;;3.87;3.67;;;32.60;90.60;;;;;;5130916;27;20878;-72
2021/06/28 11:32:56;;;;;;;3.50;3.30;;;32.70;88.70;;;;;;5117705;27;20423;-69
2021/06/28 11:35:52;;;;;;;4.80;4.40;;;32.70;89.10;;;;;;5113988;27;20451;-74
2021/06/28 11:38:26;;;;;;;4.77;4.37;;;32.70;90.30;;;;;;5104898;27;20809;-73
2021/06/28 11:41:22;;;;;;;4.80;4.40;;;32.70;88.60;;;;;;5130898;27;20451;-69
2021/06/28 11:43:50;;;;;;;4.03;3.63;;;32.70;88.00;;;;;;5116589;27;20443;-69
2021/06/28 11:46:31;;;;;;;3.83;3.53;;;32.70;89.50;;;;;;5133747;27;20462;-74
2021/06/28 11:49:03;;;;;;;3.70;3.50;;;32.70;88.50;;;;;;5132107;27;20921;-69
2021/06/28 11:51:40;;;;;;;6.60;3.97;;;32.70;87.40;;;;;;5115208;27;20845;-74
2021/06/28 11:54:08;;;;;;;4.23;3.93;;;32.70;87.30;;;;;;5109298;27;20431;-66
2021/06/28 11:56:39;;;;;;;3.87;3.57;;;32.80;87.90;;;;;;5129602;27;20447;-68
2021/06/28 11:59:13;;;;;;;3.60;3.40;;;32.80;87.90;;;;;;5130578;27;20420;-74
2021/06/28 12:01:43;;;;;;;3.90;3.60;;;32.80;88.80;;;;;;5113481;27;20456;-72
2021/06/28 12:04:15;;;;;;;9.97;4.63;;;32.90;87.80;;;;;;5108256;27;20830;-72
2021/06/28 12:06:41;;;;;;;4.50;4.20;;;32.90;87.00;;;;;;5108599;27;20451;-72
2021/06/28 12:09:09;;;;;;;4.50;4.10;;;32.90;86.80;;;;;;5134672;27;20968;-68
2021/06/28 12:11:36;;;;;;;4.20;3.90;;;32.90;86.30;;;;;;5110023;27;20527;-68
2021/06/28 12:14:03;;;;;;;3.90;3.60;;;32.90;87.10;;;;;;5110469;27;20490;-68
2021/06/28 12:16:29;;;;;;;4.07;3.77;;;33.00;87.20;;;;;;5113447;27;20472;-72
2021/06/28 12:19:05;;;;;;;4.03;3.73;;;33.00;85.50;;;;;;5113272;27;20940;-72
2021/06/28 12:21:34;;;;;;;4.10;3.80;;;33.10;87.20;;;;;;5130211;27;20455;-72
2021/06/28 12:24:14;;;;;;;4.63;4.17;;;33.10;87.90;;;;;;5126628;27;20480;-68
2021/06/28 12:26:56;;;;;;;4.10;3.70;;;33.10;87.10;;;;;;5129175;27;20458;-72
2021/06/28 12:29:43;;;;;;;4.00;3.70;;;33.10;85.20;;;;;;5128447;27;20472;-72
2021/06/28 12:32:12;;;;;;;4.13;3.77;;;33.10;86.20;;;;;;5109907;27;20490;-72
2021/06/28 12:34:39;;;;;;;3.93;3.63;;;33.10;86.70;;;;;;5110511;27;20750;-72
2021/06/28 12:37:06;;;;;;;4.20;3.83;;;33.10;84.20;;;;;;5110354;27;20495;-73
2021/06/28 12:39:32;;;;;;;3.90;3.60;;;33.20;84.40;;;;;;5101740;27;20424;-73
2021/06/28 12:42:37;;;;;;;4.23;3.90;;;33.20;84.40;;;;;;5108851;27;20455;-68
2021/06/28 12:45:03;;;;;;;6.30;3.80;;;33.20;84.40;;;;;;5076860;27;20476;-68
2021/06/28 12:47:29;;;;;;;4.73;3.37;;;33.10;84.60;;;;;;5127079;27;20434;-68
2021/06/28 12:49:55;;;;;;;4.30;3.90;;;33.10;86.00;;;;;;5107239;27;20434;-73
2021/06/28 12:52:37;;;;;;;3.80;3.50;;;33.20;85.00;;;;;;5108435;27;20209;-73
2021/06/28 12:55:27;;;;;;;3.97;3.67;;;33.20;85.50;;;;;;5120509;27;20434;-68
2021/06/28 12:58:02;;;;;;;3.50;3.30;;;33.20;83.40;;;;;;5125150;27;20419;-73
2021/06/28 13:00:29;;;;;;;3.77;3.47;;;33.20;83.00;;;;;;5125181;27;20809;-69
2021/06/28 13:03:06;;;;;;;6.63;3.83;;;33.20;82.60;;;;;;5122685;27;20415;-74
2021/06/28 13:05:43;;;;;;;4.27;3.97;;;33.20;82.80;;;;;;5128734;27;20459;-72
2021/06/28 13:08:20;;;;;;;3.87;3.57;;;33.20;82.50;;;;;;5113079;27;20423;-72
2021/06/28 13:11:08;;;;;;;5.50;4.00;;;33.20;82.50;;;;;;5111321;27;20471;-68
2021/06/28 13:13:47;;;;;;;3.37;3.07;;;33.20;82.80;;;;;;5112417;27;20518;-72
2021/06/28 13:17:03;;;;;;;3.80;3.50;;;33.30;82.40;;;;;;5111801;27;20991;-68
2021/06/28 13:19:11;;;;;;;3.90;3.60;;;33.30;81.60;;;;;;5125475;27;20438;-68
2021/06/28 13:21:39;;;;;;;3.60;3.40;;;33.30;80.10;;;;;;5128788;27;20960;-71
2021/06/28 13:24:07;;;;;;;3.57;3.30;;;33.20;79.90;;;;;;5129110;27;20804;-68
2021/06/28 13:26:39;;;;;;;3.40;3.20;;;33.20;79.60;;;;;;5112589;27;20547;-73
2021/06/28 13:29:12;;;;;;;3.77;3.30;;;33.20;80.30;;;;;;5131505;27;20415;-68
2021/06/28 13:31:53;;;;;;;4.13;3.83;;;33.20;80.30;;;;;;5113175;28;20543;-68
2021/06/28 13:34:20;;;;;;;5.30;3.87;;;33.20;80.20;;;;;;5126411;27;20438;-68
2021/06/28 13:37:14;;;;;;;4.07;3.77;;;33.20;80.20;;;;;;5132551;27;20962;-68
2021/06/28 13:39:49;;;;;;;3.60;3.30;;;33.20;80.50;;;;;;5107452;27;20419;-72
2021/06/28 13:42:38;;;;;;;4.03;3.73;;;33.20;80.20;;;;;;5130823;27;20451;-68
2021/06/28 13:45:15;;;;;;;4.30;3.50;;;33.20;80.10;;;;;;5101219;27;20474;-68
2021/06/28 13:48:00;;;;;;;3.70;3.40;;;33.20;79.90;;;;;;5131098;27;20506;-73
2021/06/28 13:50:32;;;;;;;4.00;3.70;;;33.20;79.50;;;;;;5103890;28;20486;-72
2021/06/28 13:53:03;;;;;;;3.87;3.57;;;33.30;80.50;;;;;;5115298;28;21007;-70
2021/06/28 13:55:29;;;;;;;4.17;3.87;;;33.30;81.10;;;;;;5130803;28;20592;-68
2021/06/28 13:58:00;;;;;;;5.30;3.37;;;33.40;79.30;;;;;;5125381;28;21031;-68
2021/06/28 14:00:40;;;;;;;3.60;2.83;;;33.40;79.00;;;;;;5127757;28;20287;-73
2021/06/28 14:03:07;;;;;;;4.20;3.80;;;33.40;78.60;;;;;;5127375;28;20423;-68
2021/06/28 14:05:33;;;;;;;3.73;3.53;;;33.40;78.90;;;;;;5126988;27;20595;-68
2021/06/28 14:07:59;;;;;;;3.97;3.67;;;33.50;79.30;;;;;;5106667;28;20509;-72
2021/06/28 14:10:25;;;;;;;4.07;3.83;;;33.50;79.10;;;;;;5110531;28;20905;-68
2021/06/28 14:12:50;;;;;;;4.43;4.03;;;33.50;79.20;;;;;;5117480;27;20502;-73
2021/06/28 14:15:16;;;;;;;5.10;3.80;;;33.60;79.10;;;;;;5133823;27;20228;-72
2021/06/28 14:17:43;;;;;;;3.63;3.37;;;33.60;79.20;;;;;;5135111;27;20206;-70
2021/06/28 14:20:11;;;;;;;4.10;3.70;;;33.60;79.10;;;;;;5134633;27;20295;-69
2021/06/28 14:22:37;;;;;;;4.53;4.20;;;33.60;79.80;;;;;;5115670;27;20434;-68
2021/06/28 14:25:05;;;;;;;3.90;3.50;;;33.60;78.10;;;;;;5132008;27;20526;-73
2021/06/28 14:27:31;;;;;;;4.50;4.20;;;33.60;77.40;;;;;;5117019;27;20477;-72
2021/06/28 14:30:00;;;;;;;3.87;3.53;;;33.60;77.30;;;;;;5132799;27;20512;-67